Azalea, Virginia
Current Conditions -  °F | °C
As of 11:54 AM on Friday 28 Nov 2014 (Local Time) from KOFP Reporting Station
Clear Clear  
Wind Chill:   Ceiling: Unl
Heat Index:   Visibility: 10mi
Dew Point: -7°   Wind: 8mph
Humidity: 45%   Direction: 310°NW
Pressure: 30.31"   Gusts: NA
Location:  37.619°N, 77.441°W
Report Text: KOFP 281654Z AUTO 31007KT 290V350 10SM CLR 04/M07 A3031 RMK AO2 SLP266 T00441067
Loading
Personal Weather Stations






























Interactive Weather Map New forecast layout! Learn more

10-Day Weather Forecast

Advertisements
Track Severe Weather on mobile